createdAt,value
2018-04-10T00:01:58.992Z,63.40
2018-04-10T00:04:27.220Z,63.80
2018-04-10T00:06:54.667Z,63.70
2018-04-10T00:09:22.166Z,63.90
2018-04-10T00:11:49.576Z,64.20
2018-04-10T00:14:17.806Z,63.60
2018-04-10T00:16:45.256Z,63.50
2018-04-10T00:19:12.711Z,63.20
2018-04-10T00:21:40.160Z,63.90
2018-04-10T00:24:07.624Z,64.50
2018-04-10T00:29:09.069Z,65.00
2018-04-10T00:31:36.512Z,65.30
2018-04-10T00:34:03.988Z,65.30
2018-04-10T00:36:31.436Z,65.20
2018-04-10T00:38:59.655Z,65.50
2018-04-10T00:41:27.104Z,65.50
2018-04-10T00:43:54.563Z,66.60
2018-04-10T00:46:22.775Z,66.90
2018-04-10T00:48:50.237Z,66.90
2018-04-10T00:51:17.679Z,67.30
2018-04-10T00:53:45.917Z,66.90
2018-04-10T00:56:13.381Z,66.60
2018-04-10T00:58:40.844Z,66.80
2018-04-10T01:01:08.291Z,66.60
2018-04-10T01:03:36.504Z,66.20
2018-04-10T01:06:03.964Z,66.20
2018-04-10T01:08:31.432Z,65.80
2018-04-10T01:10:58.888Z,64.90
2018-04-10T01:13:26.336Z,65.70
2018-04-10T01:15:54.569Z,66.60
2018-04-10T01:18:22.017Z,66.50
2018-04-10T01:20:49.475Z,66.40
2018-04-10T01:23:16.923Z,66.90
2018-04-10T01:25:45.152Z,66.50
2018-04-10T01:28:12.600Z,66.40
2018-04-10T01:30:40.069Z,66.60
2018-04-10T01:33:07.516Z,67.00
2018-04-10T01:35:35.747Z,66.20
2018-04-10T01:38:03.192Z,66.20
2018-04-10T01:40:30.639Z,66.30
2018-04-10T01:42:58.872Z,67.40
2018-04-10T01:45:26.326Z,66.70
2018-04-10T01:47:53.817Z,66.50
2018-04-10T01:50:21.269Z,66.20
2018-04-10T01:52:48.723Z,66.40
2018-04-10T01:55:16.181Z,66.60
2018-04-10T01:57:44.414Z,66.50
2018-04-10T02:00:11.863Z,66.40
2018-04-10T02:02:39.324Z,66.60
2018-04-10T02:05:06.779Z,67.00
2018-04-10T02:07:35.011Z,67.50
2018-04-10T02:10:02.473Z,67.50
2018-04-10T02:12:30.000Z,67.50
2018-04-10T02:14:58.212Z,68.00
2018-04-10T02:17:25.676Z,68.00
2018-04-10T02:19:53.133Z,68.00
2018-04-10T02:22:21.452Z,67.90
2018-04-10T02:24:48.912Z,67.80
2018-04-10T02:27:16.355Z,67.50
2018-04-10T02:29:44.589Z,67.10
2018-04-10T02:32:12.036Z,67.00
2018-04-10T02:34:39.501Z,67.00
2018-04-10T02:37:06.943Z,67.10
2018-04-10T02:39:35.168Z,67.40
2018-04-10T02:42:02.625Z,67.40
2018-04-10T02:44:30.090Z,67.50
2018-04-10T02:46:57.540Z,68.00
2018-04-10T02:49:25.775Z,68.10
2018-04-10T02:51:53.226Z,68.00
2018-04-10T02:54:20.693Z,68.00
2018-04-10T02:56:48.144Z,68.00
2018-04-10T02:59:16.351Z,67.70
2018-04-10T03:01:43.812Z,67.70
2018-04-10T03:04:11.292Z,67.60
2018-04-10T03:06:38.759Z,67.60
2018-04-10T03:09:06.196Z,67.40
2018-04-10T03:11:34.481Z,67.50
2018-04-10T03:14:02.697Z,67.70
2018-04-10T03:16:30.165Z,67.60
2018-04-10T03:18:57.628Z,68.00
2018-04-10T03:21:25.080Z,68.00
2018-04-10T03:23:53.300Z,68.00
2018-04-10T03:26:20.765Z,67.80
2018-04-10T03:28:48.235Z,66.80
2018-04-10T03:31:15.706Z,66.90
2018-04-10T03:33:43.161Z,66.70
2018-04-10T03:36:10.624Z,66.90
2018-04-10T03:38:38.081Z,67.50
2018-04-10T03:41:06.318Z,68.40
2018-04-10T03:43:33.797Z,68.30
2018-04-10T03:46:01.260Z,68.70
2018-04-10T03:48:28.713Z,69.00
2018-04-10T03:50:56.170Z,68.80
2018-04-10T03:53:23.641Z,68.60
2018-04-10T03:55:51.109Z,68.90
2018-04-10T03:58:18.616Z,68.40
2018-04-10T04:00:46.191Z,68.40
2018-04-10T04:03:13.665Z,68.60
2018-04-10T04:05:41.119Z,69.20
2018-04-10T04:08:08.563Z,69.30
2018-04-10T04:10:36.017Z,69.40
2018-04-10T04:13:03.482Z,68.00
2018-04-10T04:15:30.936Z,68.00
2018-04-10T04:17:59.168Z,69.00
2018-04-10T04:20:39.224Z,69.00
2018-04-10T04:23:06.685Z,69.50
2018-04-10T04:25:34.140Z,69.60
2018-04-10T04:28:01.617Z,69.60
2018-04-10T04:30:29.055Z,70.10
2018-04-10T04:32:57.282Z,69.90
2018-04-10T04:35:24.736Z,69.90
2018-04-10T04:37:52.198Z,69.90
2018-04-10T04:40:19.717Z,70.20
2018-04-10T04:42:47.163Z,70.10
2018-04-10T04:45:14.631Z,70.40
2018-04-10T04:47:42.102Z,71.10
2018-04-10T04:50:09.552Z,70.40
2018-04-10T04:52:37.023Z,70.20
2018-04-10T04:55:04.480Z,69.90
2018-04-10T04:57:31.932Z,69.70
2018-04-10T05:00:00.166Z,69.20
2018-04-10T05:02:27.630Z,69.10
2018-04-10T05:04:55.106Z,69.50
2018-04-10T05:07:22.552Z,69.80
2018-04-10T05:09:50.022Z,70.40
2018-04-10T05:12:17.467Z,70.80
2018-04-10T05:14:45.705Z,71.10
2018-04-10T05:17:13.172Z,70.50
2018-04-10T05:19:40.654Z,70.70
2018-04-10T05:22:08.104Z,70.80
2018-04-10T05:24:35.564Z,70.80
2018-04-10T05:27:03.018Z,70.80
2018-04-10T05:29:30.491Z,70.90
2018-04-10T05:31:57.957Z,71.20
2018-04-10T05:34:25.467Z,71.00
2018-04-10T05:36:52.905Z,70.80
2018-04-10T05:39:20.382Z,71.10
2018-04-10T05:41:47.833Z,71.40
2018-04-10T05:44:15.341Z,71.80
2018-04-10T05:46:42.792Z,71.70
2018-04-10T05:49:10.268Z,71.70
2018-04-10T05:51:37.724Z,71.40
2018-04-10T05:54:05.193Z,71.50
2018-04-10T05:56:32.644Z,71.40
2018-04-10T05:59:00.122Z,71.30
2018-04-10T06:01:27.585Z,71.70
2018-04-10T06:03:55.099Z,71.60
2018-04-10T06:06:22.529Z,71.20
2018-04-10T06:08:50.016Z,71.10
2018-04-10T06:11:17.478Z,71.90
2018-04-10T06:13:44.962Z,71.20
2018-04-10T06:16:12.440Z,71.10
2018-04-10T06:18:39.895Z,71.60
2018-04-10T06:21:07.359Z,71.70
2018-04-10T06:23:34.820Z,71.90
2018-04-10T06:26:02.305Z,70.40
2018-04-10T06:28:29.766Z,70.20
2018-04-10T06:30:57.238Z,70.50
2018-04-10T06:33:24.698Z,70.40
2018-04-10T06:35:52.165Z,70.20
2018-04-10T06:38:19.631Z,69.80
2018-04-10T06:40:47.092Z,69.70
2018-04-10T06:43:14.543Z,69.60
2018-04-10T06:45:42.004Z,69.00
2018-04-10T06:48:10.233Z,69.40
2018-04-10T06:50:38.097Z,69.40
2018-04-10T06:53:05.540Z,69.70
2018-04-10T06:55:33.780Z,69.20
2018-04-10T06:58:01.240Z,69.20
2018-04-10T07:00:28.702Z,68.50
2018-04-10T07:02:56.152Z,68.50
2018-04-10T07:05:23.735Z,68.70
2018-04-10T07:07:51.183Z,69.30
2018-04-10T07:10:19.414Z,70.40
2018-04-10T07:12:46.868Z,70.40
2018-04-10T07:15:14.331Z,69.90
2018-04-10T07:17:41.979Z,70.00
2018-04-10T07:20:10.306Z,69.80
2018-04-10T07:22:37.765Z,69.80
2018-04-10T07:25:05.223Z,70.00
2018-04-10T07:27:32.693Z,70.40
2018-04-10T07:30:00.165Z,70.30
2018-04-10T07:32:27.742Z,70.00
2018-04-10T07:34:55.232Z,69.20
2018-04-10T07:37:22.698Z,69.30
2018-04-10T07:39:50.177Z,69.60
2018-04-10T07:42:17.664Z,70.00
2018-04-10T07:44:45.108Z,70.50
2018-04-10T07:47:12.575Z,70.70
2018-04-10T07:49:40.032Z,70.90
2018-04-10T07:52:07.494Z,71.40
2018-04-10T07:54:34.952Z,70.90
2018-04-10T07:57:02.415Z,70.60
2018-04-10T07:59:29.871Z,71.10
2018-04-10T08:01:58.102Z,72.00
2018-04-10T08:04:25.577Z,72.00
2018-04-10T08:06:53.034Z,71.60
2018-04-10T08:09:20.500Z,71.20
2018-04-10T08:11:47.954Z,71.00
2018-04-10T08:14:15.430Z,71.00
2018-04-10T08:16:42.902Z,71.30
2018-04-10T08:19:10.384Z,71.50
2018-04-10T08:21:37.826Z,71.70
2018-04-10T08:24:05.288Z,71.40
2018-04-10T08:26:32.762Z,71.70
2018-04-10T08:29:00.237Z,71.50
2018-04-10T08:31:27.687Z,71.50
2018-04-10T08:33:55.928Z,69.70
2018-04-10T08:36:23.393Z,69.70
2018-04-10T08:38:50.899Z,68.70
2018-04-10T08:41:19.132Z,68.70
2018-04-10T08:43:46.592Z,68.10
2018-04-10T08:46:14.067Z,67.90
2018-04-10T08:48:41.525Z,67.70
2018-04-10T08:51:09.003Z,66.60
2018-04-10T08:53:36.458Z,66.20
2018-04-10T08:56:03.925Z,65.90
2018-04-10T08:58:31.381Z,66.10
2018-04-10T09:00:59.604Z,65.90
2018-04-10T09:03:27.056Z,65.90
2018-04-10T09:05:54.524Z,66.30
2018-04-10T09:08:21.990Z,66.60
2018-04-10T09:10:49.461Z,66.40
2018-04-10T09:13:16.929Z,65.90
2018-04-10T09:15:44.411Z,66.10
2018-04-10T09:18:11.932Z,64.80
2018-04-10T09:20:40.180Z,65.10
2018-04-10T09:23:07.643Z,64.60
2018-04-10T09:25:35.125Z,64.40
2018-04-10T09:28:02.572Z,64.30
2018-04-10T09:30:30.080Z,63.90
2018-04-10T09:32:57.540Z,62.50
2018-04-10T09:35:25.000Z,62.80
2018-04-10T09:37:52.456Z,63.50
2018-04-10T09:40:19.931Z,62.70
2018-04-10T09:42:47.430Z,62.40
2018-04-10T09:45:14.888Z,62.20
2018-04-10T09:47:42.354Z,62.10
2018-04-10T09:50:09.873Z,62.40
2018-04-10T09:52:37.298Z,61.90
2018-04-10T09:55:04.770Z,62.10
2018-04-10T09:57:32.242Z,60.80
2018-04-10T09:59:59.734Z,59.90
2018-04-10T10:02:27.190Z,60.80
2018-04-10T10:04:54.665Z,59.70
2018-04-10T10:07:22.888Z,59.60
2018-04-10T10:09:50.378Z,59.30
2018-04-10T10:12:17.828Z,58.80
2018-04-10T10:14:45.319Z,57.70
2018-04-10T10:17:12.795Z,57.20
2018-04-10T10:19:40.241Z,57.90
2018-04-10T10:22:07.700Z,57.60
2018-04-10T10:24:35.928Z,55.80
2018-04-10T10:27:03.385Z,55.80
2018-04-10T10:29:30.902Z,54.60
2018-04-10T10:31:59.141Z,55.00
2018-04-10T10:34:26.604Z,55.00
2018-04-10T10:36:54.061Z,54.50
2018-04-10T10:39:21.508Z,54.50
2018-04-10T10:41:48.993Z,53.90
2018-04-10T10:44:16.452Z,55.40
2018-04-10T10:46:43.915Z,54.60
2018-04-10T10:49:11.382Z,53.60
2018-04-10T10:51:39.629Z,53.40
2018-04-10T10:54:07.076Z,53.40
2018-04-10T10:56:34.550Z,52.50
2018-04-10T10:59:02.027Z,49.60
2018-04-10T11:01:29.485Z,52.20
2018-04-10T11:03:56.964Z,51.80
2018-04-10T11:06:24.440Z,52.10
2018-04-10T11:08:51.924Z,52.40
2018-04-10T11:11:19.384Z,51.20
2018-04-10T11:13:46.836Z,49.70
2018-04-10T11:16:14.307Z,50.30
2018-04-10T11:18:41.769Z,49.50
2018-04-10T11:21:09.229Z,49.10
2018-04-10T11:23:36.706Z,50.60
2018-04-10T11:26:04.158Z,49.00
2018-04-10T11:28:31.614Z,48.90
2018-04-10T11:30:59.845Z,50.20
2018-04-10T11:33:27.302Z,50.20
2018-04-10T11:35:54.756Z,50.40
2018-04-10T11:38:22.204Z,49.10
2018-04-10T11:40:50.432Z,47.70
2018-04-10T11:43:17.886Z,47.60
2018-04-10T11:45:45.389Z,47.90
2018-04-10T11:48:13.640Z,47.90
2018-04-10T11:50:41.102Z,47.90
2018-04-10T11:53:08.548Z,47.90
2018-04-10T11:55:36.785Z,44.60
2018-04-10T11:58:04.275Z,44.60
2018-04-10T12:00:31.747Z,42.80
2018-04-10T12:02:59.185Z,42.50
2018-04-10T12:05:26.649Z,42.10
2018-04-10T12:07:54.102Z,41.50
2018-04-10T12:10:21.589Z,42.60
2018-04-10T12:12:49.020Z,43.00
2018-04-10T12:15:17.254Z,44.40
2018-04-10T12:17:44.695Z,44.40
2018-04-10T12:20:12.196Z,43.50
2018-04-10T12:22:39.636Z,44.10
2018-04-10T12:25:07.097Z,44.30
2018-04-10T12:27:34.545Z,44.70
2018-04-10T12:30:02.038Z,44.60
2018-04-10T12:32:29.472Z,44.30
2018-04-10T12:34:57.009Z,44.20
2018-04-10T12:37:24.376Z,45.60
2018-04-10T12:39:51.961Z,44.70
2018-04-10T12:42:19.419Z,44.50
2018-04-10T12:44:46.876Z,44.00
2018-04-10T12:47:14.355Z,44.30
2018-04-10T12:49:41.782Z,45.20
2018-04-10T12:52:09.245Z,44.10
2018-04-10T12:54:37.459Z,44.80
2018-04-10T12:57:05.019Z,44.90
2018-04-10T12:59:33.216Z,44.20
2018-04-10T13:02:00.672Z,44.20
2018-04-10T13:04:28.122Z,44.50
2018-04-10T13:06:56.350Z,43.30
2018-04-10T13:09:23.807Z,43.30
2018-04-10T13:11:51.278Z,42.40
2018-04-10T13:14:18.730Z,41.40
2018-04-10T13:16:46.205Z,42.40
2018-04-10T13:19:13.655Z,43.10
2018-04-10T13:21:41.899Z,43.20
2018-04-10T13:24:09.473Z,43.20
2018-04-10T13:26:36.951Z,43.00
2018-04-10T13:29:04.386Z,42.80
2018-04-10T13:31:31.844Z,42.70
2018-04-10T13:33:59.289Z,42.70
2018-04-10T13:36:27.511Z,42.90
2018-04-10T13:38:54.959Z,42.90
2018-04-10T13:41:22.412Z,42.70
2018-04-10T13:43:49.864Z,43.00
2018-04-10T13:46:18.097Z,43.90
2018-04-10T13:48:45.549Z,43.90
2018-04-10T13:51:13.037Z,43.20
2018-04-10T13:53:40.478Z,43.70
2018-04-10T13:56:08.715Z,44.20
2018-04-10T13:58:36.145Z,44.20
2018-04-10T14:01:03.607Z,44.60
2018-04-10T14:03:31.053Z,43.90
2018-04-10T14:05:58.512Z,44.50
2018-04-10T14:08:26.064Z,42.80
2018-04-10T14:10:53.514Z,44.30
2018-04-10T14:13:20.960Z,45.20
2018-04-10T14:15:48.441Z,45.80
2018-04-10T14:18:15.913Z,45.30
2018-04-10T14:20:43.372Z,45.30
2018-04-10T14:23:10.824Z,46.00
2018-04-10T14:25:38.285Z,45.60
2018-04-10T14:28:06.532Z,45.30
2018-04-10T14:30:33.995Z,45.20
2018-04-10T14:33:01.450Z,45.60
2018-04-10T14:35:28.908Z,44.70
2018-04-10T14:37:56.364Z,43.90
2018-04-10T14:40:23.846Z,44.80
2018-04-10T14:42:51.288Z,45.00
2018-04-10T14:45:19.503Z,44.00
2018-04-10T14:47:46.981Z,44.00
2018-04-10T14:50:14.446Z,44.50
2018-04-10T14:52:41.897Z,45.20
2018-04-10T14:55:09.396Z,45.40
2018-04-10T14:57:36.864Z,45.70
2018-04-10T15:00:04.312Z,45.70
2018-04-10T15:02:31.782Z,46.00
2018-04-10T15:04:59.227Z,45.60
2018-04-10T15:07:27.532Z,45.60
2018-04-10T15:09:55.728Z,45.50
2018-04-10T15:12:23.191Z,45.40
2018-04-10T15:14:50.646Z,45.20
2018-04-10T15:17:18.860Z,45.70
2018-04-10T15:19:46.306Z,45.70
2018-04-10T15:22:13.768Z,46.80
2018-04-10T15:24:41.208Z,46.90
2018-04-10T15:27:08.669Z,47.60
2018-04-10T15:29:36.120Z,47.90
2018-04-10T15:32:03.572Z,48.10
2018-04-10T15:34:31.045Z,48.30
2018-04-10T15:36:58.607Z,48.40
2018-04-10T15:39:26.047Z,48.40
2018-04-10T15:41:54.268Z,49.10
2018-04-10T15:44:21.712Z,49.10
2018-04-10T15:46:49.171Z,49.50
2018-04-10T15:49:17.388Z,50.90
2018-04-10T15:51:44.845Z,50.90
2018-04-10T15:54:12.328Z,50.90
2018-04-10T15:56:39.773Z,50.10
2018-04-10T15:59:07.232Z,50.70
2018-04-10T16:01:35.448Z,50.60
2018-04-10T16:04:02.912Z,50.60
2018-04-10T16:06:30.366Z,50.50
2018-04-10T16:08:57.827Z,50.50
2018-04-10T16:11:25.301Z,50.50
2018-04-10T16:13:53.529Z,50.60
2018-04-10T16:16:20.981Z,50.60
2018-04-10T16:18:48.452Z,50.60
2018-04-10T16:21:15.901Z,50.20
2018-04-10T16:23:43.366Z,50.30
2018-04-10T16:26:10.822Z,50.50
2018-04-10T16:28:39.044Z,49.70
2018-04-10T16:31:06.488Z,49.70
2018-04-10T16:33:33.948Z,49.80
2018-04-10T16:36:02.159Z,49.70
2018-04-10T16:38:29.626Z,49.70
2018-04-10T16:40:57.081Z,49.70
2018-04-10T16:43:24.541Z,49.20
2018-04-10T16:45:52.769Z,49.90
2018-04-10T16:48:20.241Z,49.90
2018-04-10T16:50:47.685Z,49.90
2018-04-10T16:53:15.186Z,49.90
2018-04-10T16:55:42.638Z,49.90
2018-04-10T16:58:10.082Z,50.30
2018-04-10T17:00:37.549Z,50.00
2018-04-10T17:03:04.996Z,49.80
2018-04-10T17:05:33.232Z,50.50
2018-04-10T17:08:00.680Z,50.50
2018-04-10T17:10:28.135Z,50.10
2018-04-10T17:12:56.358Z,50.50
2018-04-10T17:15:23.811Z,50.40
2018-04-10T17:17:51.276Z,50.10
2018-04-10T17:20:18.738Z,49.60
2018-04-10T17:22:46.185Z,49.50
2018-04-10T17:25:14.404Z,49.30
2018-04-10T17:27:41.894Z,49.30
2018-04-10T17:30:10.094Z,49.30
2018-04-10T17:32:37.544Z,49.30
2018-04-10T17:35:05.021Z,49.00
2018-04-10T17:37:32.459Z,49.30
2018-04-10T17:39:59.943Z,48.90
2018-04-10T17:42:27.388Z,48.90
2018-04-10T17:44:54.848Z,49.20
2018-04-10T17:47:23.119Z,49.20
2018-04-10T17:49:50.626Z,49.10
2018-04-10T17:52:18.116Z,49.00
2018-04-10T17:54:45.607Z,48.90
2018-04-10T17:57:13.088Z,49.30
2018-04-10T17:59:42.078Z,49.50
2018-04-10T18:02:10.312Z,50.00
2018-04-10T18:04:38.537Z,49.10
2018-04-10T18:07:06.003Z,49.10
2018-04-10T18:09:33.440Z,49.20
2018-04-10T18:12:00.928Z,49.60
2018-04-10T18:14:28.372Z,50.00
2018-04-10T18:16:56.601Z,50.00
2018-04-10T18:19:24.049Z,49.90
2018-04-10T18:21:51.526Z,50.30
2018-04-10T18:24:18.988Z,50.10
2018-04-10T18:26:46.449Z,50.20
2018-04-10T18:29:13.919Z,50.00
2018-04-10T18:31:41.406Z,50.30
2018-04-10T18:34:08.856Z,50.40
2018-04-10T18:36:36.312Z,50.80
2018-04-10T18:39:05.466Z,51.30
2018-04-10T18:41:32.940Z,51.20
2018-04-10T18:44:00.472Z,51.00
2018-04-10T18:46:27.937Z,51.20
2018-04-10T18:48:55.395Z,51.40
2018-04-10T18:51:23.616Z,51.50
2018-04-10T18:53:51.068Z,51.50
2018-04-10T18:56:18.515Z,52.00
2018-04-10T18:58:46.740Z,52.00
2018-04-10T19:01:14.229Z,52.00
2018-04-10T19:03:41.685Z,52.10
2018-04-10T19:06:09.131Z,52.30
2018-04-10T19:08:36.607Z,52.60
2018-04-10T19:11:04.067Z,52.90
2018-04-10T19:13:31.526Z,53.10
2018-04-10T19:15:58.985Z,53.20
2018-04-10T19:18:27.221Z,53.00
2018-04-10T19:20:54.671Z,53.00
2018-04-10T19:23:22.141Z,53.20
2018-04-10T19:25:49.598Z,53.70
2018-04-10T19:28:17.063Z,53.50
2018-04-10T19:30:44.513Z,53.80
2018-04-10T19:33:12.736Z,54.00
2018-04-10T19:35:40.184Z,53.80
2018-04-10T19:38:08.404Z,54.50
2018-04-10T19:40:37.738Z,54.50
2018-04-10T19:43:05.193Z,54.20
2018-04-10T19:45:32.709Z,54.30
2018-04-10T19:48:00.117Z,54.70
2018-04-10T19:50:27.577Z,55.30
2018-04-10T19:52:55.052Z,55.60
2018-04-10T19:55:22.608Z,56.20
2018-04-10T19:57:50.854Z,57.50
2018-04-10T20:00:18.304Z,57.50
2018-04-10T20:02:45.758Z,58.80
2018-04-10T20:05:13.224Z,58.30
2018-04-10T20:07:40.679Z,58.90
2018-04-10T20:10:08.166Z,59.30
2018-04-10T20:12:35.648Z,59.30
2018-04-10T20:15:03.118Z,59.20
2018-04-10T20:17:30.565Z,58.90
2018-04-10T20:19:58.025Z,59.10
2018-04-10T20:22:25.471Z,59.30
2018-04-10T20:24:52.936Z,59.60
2018-04-10T20:27:21.207Z,59.60
2018-04-10T20:29:48.604Z,59.60
2018-04-10T20:32:16.066Z,60.20
2018-04-10T20:34:43.512Z,60.20
2018-04-10T20:37:10.985Z,60.30
2018-04-10T20:39:38.428Z,60.60
2018-04-10T20:42:05.973Z,60.60
2018-04-10T20:44:33.420Z,60.80
2018-04-10T20:47:00.887Z,61.30
2018-04-10T20:49:28.339Z,61.70
2018-04-10T20:51:56.565Z,62.40
2018-04-10T20:54:24.008Z,62.40
2018-04-10T20:56:51.481Z,61.90
2018-04-10T20:59:18.924Z,61.70
2018-04-10T21:01:47.161Z,62.00
2018-04-10T21:04:14.632Z,62.00
2018-04-10T21:06:42.096Z,62.00
2018-04-10T21:09:09.556Z,61.60
2018-04-10T21:11:37.016Z,61.70
2018-04-10T21:14:04.456Z,61.80
2018-04-10T21:16:32.697Z,61.70
2018-04-10T21:19:00.137Z,61.60
2018-04-10T21:21:27.607Z,61.80
2018-04-10T21:23:55.060Z,61.80
2018-04-10T21:26:23.272Z,61.90
2018-04-10T21:28:50.746Z,61.80
2018-04-10T21:31:18.191Z,61.40
2018-04-10T21:33:45.657Z,61.50
2018-04-10T21:36:13.872Z,61.10
2018-04-10T21:38:41.333Z,61.10
2018-04-10T21:41:08.785Z,61.00
2018-04-10T21:43:36.266Z,61.60
2018-04-10T21:46:03.711Z,61.20
2018-04-10T21:48:31.940Z,61.70
2018-04-10T21:50:59.416Z,62.30
2018-04-10T21:53:26.885Z,61.80
2018-04-10T21:55:54.345Z,61.40
2018-04-10T21:58:21.810Z,62.60
2018-04-10T22:00:49.252Z,63.10
2018-04-10T22:03:16.713Z,64.10
2018-04-10T22:05:44.920Z,64.40
2018-04-10T22:08:12.386Z,64.40
2018-04-10T22:10:39.980Z,64.80
2018-04-10T22:13:07.436Z,65.00
2018-04-10T22:15:34.901Z,64.60
2018-04-10T22:18:02.369Z,64.70
2018-04-10T22:20:29.827Z,64.20
2018-04-10T22:22:57.276Z,64.60
2018-04-10T22:25:25.585Z,65.10
2018-04-10T22:27:53.801Z,65.50
2018-04-10T22:30:21.269Z,65.50
2018-04-10T22:32:48.686Z,65.80
2018-04-10T22:35:16.240Z,66.10
2018-04-10T22:37:43.657Z,66.80
2018-04-10T22:40:11.117Z,67.00
2018-04-10T22:42:38.573Z,67.80
2018-04-10T22:45:06.032Z,68.40
2018-04-10T22:47:33.471Z,69.20
2018-04-10T22:50:01.724Z,69.60
2018-04-10T22:52:29.148Z,69.60
2018-04-10T22:54:56.619Z,69.40
2018-04-10T22:57:24.068Z,69.40
2018-04-10T22:59:52.316Z,68.50
2018-04-10T23:02:19.758Z,68.40
2018-04-10T23:04:47.221Z,68.60
2018-04-10T23:07:14.710Z,69.00
2018-04-10T23:09:42.249Z,69.40
2018-04-10T23:12:10.476Z,68.30
2018-04-10T23:14:37.941Z,68.30
2018-04-10T23:17:05.413Z,68.10
2018-04-10T23:19:32.870Z,68.20
2018-04-10T23:22:00.341Z,68.30
2018-04-10T23:24:27.793Z,68.10
2018-04-10T23:26:56.033Z,68.20
2018-04-10T23:29:23.484Z,68.10
2018-04-10T23:31:50.956Z,67.90
2018-04-10T23:34:18.413Z,68.60
2018-04-10T23:36:45.873Z,68.50
2018-04-10T23:39:14.116Z,68.60
2018-04-10T23:41:41.594Z,68.50
2018-04-10T23:44:09.058Z,68.60
2018-04-10T23:46:36.530Z,68.20
2018-04-10T23:49:03.986Z,67.60
2018-04-10T23:51:31.449Z,66.60
2018-04-10T23:53:58.917Z,67.00
2018-04-10T23:56:26.361Z,67.50
2018-04-10T23:58:53.820Z,67.60
